createdAt,value
2019-04-14T00:00:42.690Z,76.65
2019-04-14T00:03:15.096Z,70.83
2019-04-14T00:05:48.161Z,74.50
2019-04-14T00:08:17.954Z,76.50
2019-04-14T00:10:50.781Z,69.92
2019-04-14T00:13:21.686Z,73.35
2019-04-14T00:15:52.326Z,77.05
2019-04-14T00:18:23.073Z,73.60
2019-04-14T00:20:53.430Z,75.37
2019-04-14T00:23:23.731Z,76.43
2019-04-14T00:25:54.412Z,72.62
2019-04-14T00:28:25.001Z,76.00
2019-04-14T00:30:55.580Z,74.97
2019-04-14T00:33:28.105Z,75.35
2019-04-14T00:36:00.228Z,71.20
2019-04-14T00:38:32.322Z,70.72
2019-04-14T00:41:05.034Z,76.80
2019-04-14T00:43:37.415Z,78.43
2019-04-14T00:46:12.472Z,74.10
2019-04-14T00:48:43.057Z,79.45
2019-04-14T00:51:13.410Z,77.37
2019-04-14T00:53:43.156Z,75.37
2019-04-14T00:56:15.069Z,79.85
2019-04-14T00:58:45.342Z,80.53
2019-04-14T01:01:15.494Z,85.23
2019-04-14T01:03:46.508Z,82.02
2019-04-14T01:06:16.424Z,79.27
2019-04-14T01:08:46.813Z,78.80
2019-04-14T01:11:18.097Z,81.70
2019-04-14T01:13:48.631Z,87.47
2019-04-14T01:16:21.691Z,86.30
2019-04-14T01:18:50.016Z,80.95
2019-04-14T01:21:19.730Z,86.27
2019-04-14T01:23:50.351Z,83.47
2019-04-14T01:26:20.367Z,89.80
2019-04-14T01:28:52.585Z,85.00
2019-04-14T01:31:23.053Z,92.47
2019-04-14T01:33:53.369Z,89.00
2019-04-14T01:36:25.517Z,92.60
2019-04-14T01:38:55.726Z,89.45
2019-04-14T01:41:26.074Z,87.95
2019-04-14T01:43:56.088Z,91.50
2019-04-14T01:46:29.527Z,91.35
2019-04-14T01:48:58.531Z,87.33
2019-04-14T01:51:30.967Z,92.78
2019-04-14T01:54:03.950Z,87.57
2019-04-14T01:56:36.281Z,92.65
2019-04-14T01:59:08.730Z,88.67
2019-04-14T02:01:41.101Z,90.15
2019-04-14T02:04:12.136Z,91.42
2019-04-14T02:06:41.969Z,87.72
2019-04-14T02:09:12.143Z,93.93
2019-04-14T02:11:42.352Z,96.73
2019-04-14T02:14:14.785Z,92.50
2019-04-14T02:16:50.198Z,92.97
2019-04-14T02:19:15.868Z,97.08
2019-04-14T02:21:45.740Z,89.28
2019-04-14T02:24:17.865Z,95.57
2019-04-14T02:26:48.044Z,103.60
2019-04-14T02:29:19.005Z,91.57
2019-04-14T02:32:17.327Z,87.57
2019-04-14T02:34:51.438Z,91.50
2019-04-14T02:37:19.654Z,93.70
2019-04-14T02:39:54.460Z,93.07
2019-04-14T02:49:56.202Z,92.02
2019-04-14T02:52:30.151Z,89.95
2019-04-14T02:54:59.460Z,89.83
2019-04-14T02:57:30.376Z,85.07
2019-04-14T03:00:07.889Z,87.57
2019-04-14T03:05:01.834Z,86.75
2019-04-14T03:10:12.664Z,88.75
2019-04-14T03:15:15.586Z,87.95
2019-04-14T03:22:56.069Z,88.57
2019-04-14T03:25:21.117Z,86.70
2019-04-14T03:28:04.253Z,88.37
2019-04-14T03:30:57.841Z,85.28
2019-04-14T03:38:14.613Z,107.95
2019-04-14T03:40:45.232Z,92.60
2019-04-14T03:43:18.363Z,97.57
2019-04-14T03:46:04.742Z,100.78
2019-04-14T03:50:48.594Z,96.20
2019-04-14T03:53:22.137Z,100.75
2019-04-14T03:55:37.070Z,99.50
2019-04-14T03:57:58.935Z,97.85
2019-04-14T04:00:31.358Z,97.02
2019-04-14T04:03:02.007Z,97.90
2019-04-14T04:05:32.404Z,102.02
2019-04-14T04:08:02.767Z,109.03
2019-04-14T04:10:33.746Z,98.17
2019-04-14T04:13:04.076Z,101.72
2019-04-14T04:15:34.627Z,104.50
2019-04-14T04:18:07.485Z,97.62
2019-04-14T04:20:39.119Z,98.50
2019-04-14T04:23:09.558Z,102.42
2019-04-14T04:25:41.952Z,102.02
2019-04-14T04:28:14.471Z,92.95
2019-04-14T04:30:47.024Z,86.95
2019-04-14T04:33:18.383Z,95.17
2019-04-14T04:35:50.057Z,89.05
2019-04-14T04:38:22.378Z,83.30
2019-04-14T04:40:53.058Z,82.37
2019-04-14T04:43:25.453Z,81.97
2019-04-14T04:45:55.948Z,78.80
2019-04-14T04:48:26.381Z,75.10
2019-04-14T04:50:56.421Z,83.22
2019-04-14T04:53:28.706Z,80.55
2019-04-14T04:55:59.282Z,80.65
2019-04-14T04:58:32.844Z,76.35
2019-04-14T05:01:03.488Z,85.62
2019-04-14T05:03:33.967Z,79.90
2019-04-14T05:06:07.102Z,83.80
2019-04-14T05:08:41.220Z,86.50
2019-04-14T05:11:14.302Z,86.67
2019-04-14T05:13:46.806Z,81.37
2019-04-14T05:16:17.120Z,85.12
2019-04-14T05:18:46.899Z,82.45
2019-04-14T05:21:17.122Z,83.80
2019-04-14T05:23:47.409Z,81.45
2019-04-14T05:26:17.845Z,83.17
2019-04-14T05:28:50.661Z,85.53
2019-04-14T05:31:20.794Z,81.57
2019-04-14T05:33:51.172Z,84.60
2019-04-14T05:36:21.476Z,81.55
2019-04-14T05:38:51.800Z,74.10
2019-04-14T05:41:22.297Z,71.90
2019-04-14T05:43:57.075Z,72.13
2019-04-14T05:46:23.608Z,77.62
2019-04-14T05:48:53.674Z,75.28
2019-04-14T05:51:24.879Z,76.10
2019-04-14T05:53:56.677Z,74.60
2019-04-14T05:56:29.537Z,78.00
2019-04-14T05:59:00.133Z,78.17
2019-04-14T06:01:30.069Z,74.80
2019-04-14T06:04:00.357Z,82.10
2019-04-14T06:06:31.736Z,78.25
2019-04-14T06:09:01.628Z,74.40
2019-04-14T06:11:31.308Z,74.65
2019-04-14T06:14:01.127Z,75.37
2019-04-14T06:16:30.956Z,64.85
2019-04-14T06:19:01.070Z,62.17
2019-04-14T06:21:31.065Z,62.38
2019-04-14T06:24:05.420Z,61.25
2019-04-14T06:26:35.997Z,64.58
2019-04-14T06:29:06.137Z,61.45
2019-04-14T06:31:37.737Z,62.58
2019-04-14T06:34:12.739Z,59.67
2019-04-14T06:36:44.204Z,57.67
2019-04-14T06:39:17.470Z,63.00
2019-04-14T06:41:47.319Z,59.15
2019-04-14T06:44:23.378Z,67.12
2019-04-14T06:49:49.776Z,67.67
2019-04-14T06:52:19.817Z,61.45
2019-04-14T06:54:49.771Z,55.17
2019-04-14T06:57:19.695Z,57.70
2019-04-14T06:59:49.994Z,57.58
2019-04-14T07:02:19.837Z,58.90
2019-04-14T07:04:49.655Z,54.15
2019-04-14T07:07:19.696Z,54.65
2019-04-14T07:09:49.711Z,60.50
2019-04-14T07:12:19.895Z,54.30
2019-04-14T07:14:50.269Z,50.85
2019-04-14T07:21:08.166Z,49.23
2019-04-14T07:23:38.028Z,49.45
2019-04-14T07:26:10.907Z,48.28
2019-04-14T07:28:56.128Z,50.73
2019-04-14T07:31:21.098Z,49.50
2019-04-14T07:33:55.709Z,45.30
2019-04-14T07:36:27.282Z,45.78
2019-04-14T07:38:59.103Z,42.62
2019-04-14T07:41:33.556Z,49.77
2019-04-14T07:44:10.686Z,42.67
2019-04-14T07:46:42.567Z,41.77
2019-04-14T07:49:15.158Z,46.30
2019-04-14T07:51:48.937Z,45.12
2019-04-14T07:54:26.441Z,44.98
2019-04-14T08:09:35.749Z,46.58
2019-04-14T08:13:00.366Z,42.93
2019-04-14T08:15:29.939Z,46.18
2019-04-14T08:22:37.513Z,39.63
2019-04-14T08:26:02.278Z,44.67
2019-04-14T08:35:44.178Z,46.83
2019-04-14T08:52:37.806Z,51.40
2019-04-14T08:55:29.369Z,40.12
2019-04-14T09:02:23.964Z,43.45
2019-04-14T09:05:11.336Z,35.45
2019-04-14T09:07:43.946Z,44.25
2019-04-14T09:10:15.686Z,38.75
2019-04-14T09:12:47.319Z,38.00
2019-04-14T09:15:17.319Z,35.83
2019-04-14T09:17:47.220Z,30.50
2019-04-14T09:20:20.463Z,31.20
2019-04-14T09:22:53.146Z,27.60
2019-04-14T09:25:24.646Z,26.30
2019-04-14T09:38:43.241Z,21.48
2019-04-14T09:45:15.381Z,16.25
2019-04-14T09:55:25.638Z,27.00
2019-04-14T09:57:55.250Z,28.38
2019-04-14T10:04:32.610Z,30.62
2019-04-14T10:11:17.735Z,47.10
2019-04-14T10:24:12.660Z,31.65
2019-04-14T10:26:54.910Z,32.48
2019-04-14T10:33:14.098Z,27.60
2019-04-14T10:35:45.615Z,29.77
2019-04-14T10:38:15.685Z,29.60
2019-04-14T10:40:45.617Z,32.50
2019-04-14T10:43:16.743Z,31.23
2019-04-14T10:45:46.828Z,34.27
2019-04-14T10:48:19.556Z,34.30
2019-04-14T10:50:49.467Z,34.53
2019-04-14T10:53:19.742Z,34.75
2019-04-14T10:55:51.651Z,35.55
2019-04-14T10:58:22.909Z,40.10
2019-04-14T11:00:55.120Z,41.28
2019-04-14T11:06:26.752Z,45.70
2019-04-14T11:08:59.427Z,47.65
2019-04-14T11:11:31.573Z,47.05
2019-04-14T11:14:15.636Z,44.10
2019-04-14T11:17:01.618Z,48.90
2019-04-14T11:36:39.396Z,47.48
2019-04-14T11:49:40.518Z,36.53
2019-04-14T11:52:13.379Z,33.95
2019-04-14T11:54:59.458Z,30.52
2019-04-14T11:57:29.913Z,34.80
2019-04-14T12:00:06.227Z,33.90
2019-04-14T12:02:38.029Z,30.30
2019-04-14T12:05:11.296Z,30.43
2019-04-14T12:10:38.158Z,33.38
2019-04-14T12:13:16.258Z,31.00
2019-04-14T12:15:53.952Z,33.88
2019-04-14T12:18:26.312Z,29.30
2019-04-14T12:23:52.154Z,30.03
2019-04-14T12:26:22.245Z,29.52
2019-04-14T12:28:54.148Z,28.85
2019-04-14T12:31:28.942Z,29.85
2019-04-14T12:37:10.085Z,28.70
2019-04-14T12:44:07.890Z,32.53
2019-04-14T12:51:08.160Z,33.48
2019-04-14T12:53:40.814Z,36.35
2019-04-14T12:56:15.009Z,37.70
2019-04-14T12:58:50.765Z,32.23
2019-04-14T13:01:26.800Z,36.40
2019-04-14T13:11:39.656Z,39.63
2019-04-14T13:14:20.237Z,39.30
2019-04-14T13:16:53.873Z,37.17
2019-04-14T13:19:29.350Z,38.42
2019-04-14T13:24:51.894Z,33.02
2019-04-14T13:30:18.398Z,35.55
2019-04-14T13:32:55.455Z,37.25
2019-04-14T13:39:36.992Z,34.00
2019-04-14T13:45:36.109Z,28.62
2019-04-14T13:48:23.893Z,30.17
2019-04-14T13:54:40.417Z,26.27
2019-04-14T14:11:51.348Z,25.25
2019-04-14T14:20:54.336Z,25.65
2019-04-14T14:26:54.524Z,24.18
2019-04-14T14:29:43.553Z,24.60
2019-04-14T14:32:51.808Z,24.63
2019-04-14T14:39:23.443Z,25.43
2019-04-14T14:42:21.409Z,20.92
2019-04-14T14:55:33.593Z,26.55
2019-04-14T15:02:01.804Z,26.90
2019-04-14T15:15:38.975Z,43.08
2019-04-14T15:18:58.366Z,28.47
2019-04-14T15:21:36.995Z,31.82
2019-04-14T15:24:18.991Z,37.40
2019-04-14T15:47:50.795Z,38.80
2019-04-14T16:11:56.571Z,31.85
2019-04-14T16:15:14.915Z,27.73
2019-04-14T16:24:03.451Z,33.13
2019-04-14T16:29:30.645Z,34.75
2019-04-14T16:35:19.287Z,32.53
2019-04-14T16:45:52.326Z,33.67
2019-04-14T16:58:08.066Z,35.15
2019-04-14T17:00:43.590Z,36.10
2019-04-14T17:06:04.013Z,34.40
2019-04-14T17:08:35.850Z,35.20
2019-04-14T17:11:25.724Z,35.80
2019-04-14T17:17:24.419Z,33.60
2019-04-14T17:20:07.469Z,30.80
2019-04-14T17:22:51.188Z,31.47
2019-04-14T17:25:20.533Z,28.92
2019-04-14T17:44:02.847Z,28.85
2019-04-14T17:53:22.975Z,31.20
2019-04-14T18:21:48.751Z,36.90
2019-04-14T18:24:42.597Z,35.30
2019-04-14T18:27:09.595Z,34.38
2019-04-14T19:04:02.518Z,34.00
2019-04-14T19:06:51.719Z,34.98
2019-04-14T19:09:40.615Z,37.33
2019-04-14T19:18:41.926Z,35.38
2019-04-14T19:21:25.368Z,35.73
2019-04-14T19:23:54.998Z,35.45
2019-04-14T19:26:43.929Z,40.75
2019-04-14T19:29:13.556Z,35.55
2019-04-14T19:32:03.438Z,37.30
2019-04-14T19:34:53.326Z,37.57
2019-04-14T19:37:22.964Z,33.53
2019-04-14T19:40:11.976Z,38.38
2019-04-14T19:43:01.860Z,36.95
2019-04-14T19:45:50.766Z,37.42
2019-04-14T19:48:40.590Z,38.73
2019-04-14T19:51:29.568Z,36.10
2019-04-14T19:54:30.838Z,36.80
2019-04-14T19:57:29.487Z,37.30
2019-04-14T20:00:18.509Z,36.98
2019-04-14T20:03:07.473Z,38.70
2019-04-14T20:05:59.000Z,37.85
2019-04-14T20:08:47.939Z,41.60
2019-04-14T20:11:36.844Z,40.20
2019-04-14T20:14:25.841Z,40.98
2019-04-14T20:16:55.129Z,43.63
2019-04-14T20:19:38.676Z,39.83
2019-04-14T20:34:45.347Z,41.40
2019-04-14T20:37:15.391Z,41.23
2019-04-14T20:39:44.899Z,40.07
2019-04-14T20:42:33.811Z,45.17
2019-04-14T20:45:24.114Z,42.65
2019-04-14T20:48:12.966Z,45.73
2019-04-14T20:50:42.522Z,46.90
2019-04-14T20:53:31.397Z,47.15
2019-04-14T20:56:20.336Z,56.68
2019-04-14T20:59:09.313Z,45.73
2019-04-14T21:23:12.475Z,41.60
2019-04-14T21:32:34.255Z,46.95
2019-04-14T21:35:24.848Z,46.58
2019-04-14T21:44:19.471Z,47.93
2019-04-14T21:46:49.027Z,50.08
2019-04-14T21:49:38.922Z,50.83
2019-04-14T21:56:13.408Z,55.92
2019-04-14T22:14:52.761Z,57.80
2019-04-14T22:17:22.312Z,54.60
2019-04-14T22:20:03.401Z,60.12
2019-04-14T22:22:52.332Z,55.73
2019-04-14T22:25:21.878Z,56.88
2019-04-14T22:27:51.511Z,57.63
2019-04-14T22:30:41.060Z,57.48
2019-04-14T22:33:29.980Z,57.05
2019-04-14T22:36:18.879Z,55.25
2019-04-14T22:42:23.188Z,59.42
2019-04-14T22:45:31.082Z,59.40
2019-04-14T22:48:00.636Z,62.15
2019-04-14T22:50:49.533Z,61.83
2019-04-14T22:53:39.245Z,62.33
2019-04-14T22:56:39.126Z,61.83
2019-04-14T22:59:20.002Z,68.17
2019-04-14T23:15:11.619Z,59.67
2019-04-14T23:20:56.019Z,58.30
2019-04-14T23:27:01.055Z,69.35
2019-04-14T23:29:50.040Z,66.95
2019-04-14T23:32:39.210Z,67.95
2019-04-14T23:35:47.521Z,68.80
2019-04-14T23:38:36.414Z,69.92
2019-04-14T23:41:06.048Z,71.43
2019-04-14T23:43:54.998Z,75.35
2019-04-14T23:46:43.908Z,71.80
2019-04-14T23:49:32.795Z,71.17
2019-04-14T23:52:21.743Z,74.97
2019-04-14T23:55:10.879Z,80.53
2019-04-14T23:58:02.810Z,82.62
